DAUEDAON

Guest
Details From DAUE - EL GOLEA
To DAON - ZENATA
Flight Number -
Tags generated
Created
Modified
Stats Distance 383 nm / 709 km
Max Altitude 34,000 ft / 10,363 m
Waypoints 6
Social Downloads 0
Likes 0
Share VATSIM

Download

Looking for another format? Having issues loading an existing format? Contact us
Advertisement - Login to hide

Notes

Basic altitude profile: - Ascent Rate: 2500ft/min - Ascent Speed: 250kts - Cruise Altitude: 35000ft - Cruise Speed: 420kts - Descent Rate: 1500ft/min - Descent Speed: 250kts Options: - Use NATs: yes - Use PACOTS: yes - Use low airways: yes - Use high airways: yes

Route

DAUE ABLOD A604 ANIEB UA604 BAY UB738 HMB DAON

ID Type Via Altitude Latitude Longitude Leg Dist Tot Dist Heading (true) Name
O DAUE APT - 0 ft / 0 m 30.57729˚ 2.86424˚ - 0 nm - EL GOLEA
ABLOD FIX - 16,300 ft / 4,968 m 31.25167˚ 2.45583˚ 45 nm 45 nm 333° / 332° -
ANIEB FIX A604 (AWY-LO) 24,500 ft / 7,468 m 32.81667˚ 1.50000˚ 105 nm 151 nm 333° / 332° -
BAY VOR UA604 (AWY-HI) 34,000 ft / 10,363 m 33.70981˚ 1.07919˚ 57 nm 209 nm 339° / 338° EL BAYADH VOR-DME
HMB NDB UB738 (AWY-HI) 30,000 ft / 9,144 m 35.36306˚ -0.96889˚ 141 nm 350 nm 315° / 314° HAMMAM BOU HADJAR NDB
O DAON APT - 0 ft / 0 m 35.01335˚ -1.45720˚ 31 nm 382 nm 229° / 229° ZENATA

Altitude Profile

Advertisement - Login to hide

Weather


0- 5 10 15 20 25 30 35+ Temperature / ° C

Clouds and Precipitation
Forecast for 2017-12-13 00:00 UTC. Updated an hour ago

Ground ~20,000 ft ~40,000 ft Winds

DAUE

Details ICAO DAUE (ELG)
Name EL GOLEA
Region Algeria
Timezone Africa/Algiers (UTC+1.0)
Stats Elevation 1,306 ft / 398 m (AMSL)
Location 30.577292° 2.864236°
Runways 2
Magnetic Variation 0.734° E

METAR

DAUE 122000Z 33004KT CAVOK 11/00 Q1018

Decode

TAF

Not found

Departure Runways

ID Width Length Bearing (true) Bearing (mag) Surface Threshold Offset Overrun Length
10 148 ft / 45 m 5,887 ft / 1,794 m 101.92° 101.19° Asphalt 0 ft / 0 m 0 ft / 0 m
18 148 ft / 45 m 9,833 ft / 2,997 m 179.49° 178.76° Asphalt 0 ft / 0 m 350 ft / 107 m
28 148 ft / 45 m 5,887 ft / 1,794 m 281.93° 281.20° Asphalt 0 ft / 0 m 0 ft / 0 m
36 148 ft / 45 m 9,833 ft / 2,997 m 359.49° 358.76° Asphalt 0 ft / 0 m 0 ft / 0 m

DAON

Details ICAO DAON (TLM)
Name ZENATA
Region Algeria
Timezone Africa/Algiers (UTC+1.0)
Stats Elevation 814 ft / 248 m (AMSL)
Location 35.013350° -1.457202°
Runways 1
Magnetic Variation 0.068° W

METAR

DAON 122000Z 22002KT 9999 SCT026 SCT100 10/08 Q1021

Decode

TAF

TAF DAON 121700Z 1218/1318 VRB02KT 9999 SCT020 BKN026 BECMG 1315/1318 35008KT 9999 FEW026

Decode

Destination Runways

ID Width Length Bearing (true) Bearing (mag) Surface Threshold Offset Overrun Length
07 148 ft / 45 m 8,521 ft / 2,597 m 69.94° 70.01° Asphalt 0 ft / 0 m 0 ft / 0 m
25 148 ft / 45 m 8,521 ft / 2,597 m 249.96° 250.03° Asphalt 0 ft / 0 m 0 ft / 0 m